createdAt,value
2023-05-20T00:01:40.875Z,101467.70
2023-05-20T00:06:44.150Z,101459.90
2023-05-20T00:11:47.356Z,101459.11
2023-05-20T00:16:52.723Z,101464.12
2023-05-20T00:21:58.180Z,101458.10
2023-05-20T00:27:02.902Z,101456.45
2023-05-20T00:32:06.484Z,101456.25
2023-05-20T00:37:10.416Z,101452.80
2023-05-20T00:42:20.697Z,101453.34
2023-05-20T00:47:29.323Z,101453.59
2023-05-20T00:52:33.742Z,101452.77
2023-05-20T00:57:37.209Z,101448.80
2023-05-20T01:02:40.510Z,101452.81
2023-05-20T01:07:44.291Z,101452.85
2023-05-20T01:12:54.849Z,101458.14
2023-05-20T01:18:02.069Z,101457.11
2023-05-20T01:23:05.362Z,101455.33
2023-05-20T01:28:09.772Z,101454.33
2023-05-20T01:33:15.152Z,101455.49
2023-05-20T01:38:19.924Z,101455.45
2023-05-20T01:43:24.681Z,101459.46
2023-05-20T01:48:28.002Z,101454.25
2023-05-20T01:53:31.638Z,101448.79
2023-05-20T01:58:35.040Z,101443.88
2023-05-20T02:03:48.636Z,101434.85
2023-05-20T02:08:51.884Z,101433.83
2023-05-20T02:13:55.633Z,101429.93
2023-05-20T02:18:59.088Z,101432.17
2023-05-20T02:24:02.370Z,101430.67
2023-05-20T02:29:06.068Z,101438.42
2023-05-20T02:34:09.344Z,101444.98
2023-05-20T02:39:12.923Z,101448.42
2023-05-20T02:44:17.028Z,101450.35
2023-05-20T02:49:20.542Z,101453.98
2023-05-20T02:54:23.777Z,101448.06
2023-05-20T02:59:27.153Z,101451.63
2023-05-20T03:04:32.157Z,101444.46
2023-05-20T03:09:35.885Z,101445.09
2023-05-20T03:14:39.055Z,101441.84
2023-05-20T03:19:42.518Z,101444.57
2023-05-20T03:24:46.587Z,101453.20
2023-05-20T03:29:49.880Z,101455.30
2023-05-20T03:34:54.754Z,101454.69
2023-05-20T03:39:58.270Z,101447.02
2023-05-20T03:45:01.774Z,101448.17
2023-05-20T03:50:08.381Z,101450.23
2023-05-20T03:55:12.045Z,101451.98
2023-05-20T04:00:17.055Z,101447.93
2023-05-20T04:05:20.295Z,101452.63
2023-05-20T04:10:23.999Z,101455.50
2023-05-20T04:15:30.021Z,101452.21
2023-05-20T04:20:34.433Z,101453.23
2023-05-20T04:25:39.062Z,101457.98
2023-05-20T04:30:45.302Z,101464.27
2023-05-20T04:35:49.398Z,101468.92
2023-05-20T04:40:52.794Z,101469.73
2023-05-20T04:46:06.219Z,101460.75
2023-05-20T04:51:10.961Z,101453.89
2023-05-20T04:56:15.549Z,101457.91
2023-05-20T05:01:19.514Z,101452.02
2023-05-20T05:06:22.984Z,101456.50
2023-05-20T05:11:26.626Z,101455.42
2023-05-20T05:16:30.069Z,101457.56
2023-05-20T05:21:33.300Z,101461.70
2023-05-20T05:26:36.664Z,101462.43
2023-05-20T05:31:40.092Z,101462.95
2023-05-20T05:36:43.908Z,101466.60
2023-05-20T05:41:47.595Z,101462.50
2023-05-20T05:46:51.163Z,101470.10
2023-05-20T05:51:55.745Z,101472.27
2023-05-20T05:56:59.631Z,101469.18
2023-05-20T06:02:04.912Z,101468.98
2023-05-20T06:07:08.446Z,101469.67
2023-05-20T06:12:13.962Z,101468.62
2023-05-20T06:17:18.111Z,101465.05
2023-05-20T06:22:24.855Z,101469.96
2023-05-20T06:27:37.930Z,101470.46
2023-05-20T06:32:43.636Z,101465.37
2023-05-20T06:37:47.583Z,101460.65
2023-05-20T06:42:51.075Z,101459.64
2023-05-20T06:47:54.857Z,101456.48
2023-05-20T06:52:58.261Z,101454.13
2023-05-20T06:58:02.129Z,101447.94
2023-05-20T07:03:05.975Z,101447.84
2023-05-20T07:08:09.409Z,101450.71
2023-05-20T07:13:12.747Z,101441.62
2023-05-20T07:18:16.461Z,101443.30
2023-05-20T07:23:24.409Z,101445.26
2023-05-20T07:28:29.614Z,101445.34
2023-05-20T07:33:33.166Z,101443.08
2023-05-20T07:38:36.472Z,101440.85
2023-05-20T07:43:43.228Z,101438.27
2023-05-20T07:48:47.050Z,101431.70
2023-05-20T07:53:51.812Z,101424.59
2023-05-20T07:58:58.463Z,101423.41
2023-05-20T08:04:04.840Z,101426.52
2023-05-20T08:09:11.817Z,101426.16
2023-05-20T08:14:17.440Z,101426.72
2023-05-20T08:19:23.436Z,101425.09
2023-05-20T08:24:26.901Z,101421.39
2023-05-20T08:29:31.304Z,101419.69
2023-05-20T08:34:34.783Z,101418.86
2023-05-20T08:39:37.981Z,101421.59
2023-05-20T08:44:42.766Z,101419.88
2023-05-20T08:49:46.361Z,101415.09
2023-05-20T08:54:51.779Z,101410.31
2023-05-20T08:59:57.480Z,101407.15
2023-05-20T09:05:01.111Z,101405.52
2023-05-20T09:10:05.496Z,101404.97
2023-05-20T09:15:09.757Z,101402.63
2023-05-20T09:20:14.266Z,101396.03
2023-05-20T09:25:23.166Z,101398.10
2023-05-20T09:30:27.371Z,101398.53
2023-05-20T09:35:30.879Z,101395.29
2023-05-20T09:40:34.087Z,101390.04
2023-05-20T09:45:38.789Z,101385.56
2023-05-20T09:50:42.800Z,101382.38
2023-05-20T09:55:46.961Z,101381.99
2023-05-20T10:00:50.388Z,101378.70
2023-05-20T10:06:31.775Z,101374.27
2023-05-20T10:11:46.298Z,101374.72
2023-05-20T10:17:08.166Z,101374.41
2023-05-20T10:22:14.948Z,101373.70
2023-05-20T10:27:18.285Z,101368.57
2023-05-20T10:32:29.488Z,101365.38
2023-05-20T10:37:40.734Z,101361.15
2023-05-20T10:42:48.772Z,101351.25
2023-05-20T10:47:59.182Z,101346.19
2023-05-20T10:53:09.434Z,101338.55
2023-05-20T10:58:16.586Z,101330.41
2023-05-20T11:03:22.808Z,101332.30
2023-05-20T11:08:31.701Z,101325.27
2023-05-20T11:13:34.797Z,101308.81
2023-05-20T11:18:38.035Z,101305.86
2023-05-20T11:23:42.282Z,101300.05
2023-05-20T11:28:46.506Z,101294.34
2023-05-20T11:33:50.979Z,101291.50
2023-05-20T11:38:54.757Z,101290.90
2023-05-20T11:44:01.723Z,101295.89
2023-05-20T11:49:07.687Z,101290.71
2023-05-20T11:54:11.518Z,101291.43
2023-05-20T11:59:14.958Z,101295.23
2023-05-20T12:04:18.799Z,101288.14
2023-05-20T12:09:22.727Z,101286.19
2023-05-20T12:14:26.179Z,101280.55
2023-05-20T12:19:29.482Z,101279.98
2023-05-20T12:24:33.442Z,101277.27
2023-05-20T12:29:37.195Z,101278.02
2023-05-20T12:34:40.326Z,101276.02
2023-05-20T12:39:43.350Z,101275.80
2023-05-20T12:44:46.516Z,101275.65
2023-05-20T12:49:49.773Z,101269.89
2023-05-20T12:54:56.547Z,101260.39
2023-05-20T12:59:59.666Z,101256.04
2023-05-20T13:05:02.836Z,101246.30
2023-05-20T13:10:07.710Z,101236.22
2023-05-20T13:15:12.770Z,101235.02
2023-05-20T13:20:19.675Z,101232.57
2023-05-20T13:25:23.012Z,101232.59
2023-05-20T13:30:26.212Z,101233.15
2023-05-20T13:35:29.399Z,101233.20
2023-05-20T13:40:32.696Z,101231.03
2023-05-20T13:45:36.196Z,101229.09
2023-05-20T13:50:39.424Z,101227.42
2023-05-20T13:55:42.717Z,101224.66
2023-05-20T14:00:46.354Z,101212.48
2023-05-20T14:05:49.696Z,101202.96
2023-05-20T14:10:56.312Z,101201.27
2023-05-20T14:15:59.618Z,101202.48
2023-05-20T14:21:02.973Z,101193.66
2023-05-20T14:26:06.384Z,101195.81
2023-05-20T14:31:10.916Z,101192.48
2023-05-20T14:36:14.332Z,101192.58
2023-05-20T14:41:17.692Z,101194.48
2023-05-20T14:46:21.357Z,101183.95
2023-05-20T14:51:24.703Z,101181.65
2023-05-20T14:56:28.221Z,101180.99
2023-05-20T15:01:31.499Z,101178.88
2023-05-20T15:06:36.147Z,101183.23
2023-05-20T15:11:39.437Z,101178.70
2023-05-20T15:16:44.608Z,101175.76
2023-05-20T15:21:49.724Z,101172.62
2023-05-20T15:26:54.305Z,101171.08
2023-05-20T15:31:57.555Z,101170.77
2023-05-20T15:37:00.740Z,101170.98
2023-05-20T15:42:04.243Z,101166.48
2023-05-20T15:47:07.469Z,101162.27
2023-05-20T15:52:10.852Z,101162.26
2023-05-20T15:57:13.934Z,101156.08
2023-05-20T16:02:17.228Z,101157.48
2023-05-20T16:07:20.737Z,101158.31
2023-05-20T16:12:24.336Z,101150.95
2023-05-20T16:17:27.667Z,101150.83
2023-05-20T16:22:30.933Z,101152.59
2023-05-20T16:27:34.574Z,101150.49
2023-05-20T16:32:37.872Z,101149.58
2023-05-20T16:37:41.158Z,101153.94
2023-05-20T16:42:44.918Z,101157.05
2023-05-20T16:47:48.153Z,101159.34
2023-05-20T16:52:51.638Z,101157.00
2023-05-20T16:57:54.853Z,101162.38
2023-05-20T17:02:58.444Z,101168.70
2023-05-20T17:08:02.002Z,101177.20
2023-05-20T17:13:05.491Z,101180.73
2023-05-20T17:18:08.935Z,101176.83
2023-05-20T17:23:12.260Z,101180.00
2023-05-20T17:28:15.759Z,101175.88
2023-05-20T17:33:24.705Z,101179.64
2023-05-20T17:38:28.264Z,101184.46
2023-05-20T17:43:31.443Z,101188.16
2023-05-20T17:48:34.547Z,101192.68
2023-05-20T17:53:37.728Z,101199.02
2023-05-20T17:58:41.057Z,101194.55
2023-05-20T18:03:44.539Z,101194.63
2023-05-20T18:08:48.062Z,101191.41
2023-05-20T18:13:51.638Z,101195.98
2023-05-20T18:18:55.700Z,101201.14
2023-05-20T18:23:59.186Z,101204.27
2023-05-20T18:29:02.497Z,101203.95
2023-05-20T18:34:06.340Z,101207.13
2023-05-20T18:39:10.280Z,101210.59
2023-05-20T18:44:17.987Z,101213.25
2023-05-20T18:49:21.418Z,101216.95
2023-05-20T18:54:24.600Z,101213.36
2023-05-20T18:59:27.982Z,101212.41
2023-05-20T19:04:31.738Z,101207.73
2023-05-20T19:09:34.833Z,101208.69
2023-05-20T19:14:39.493Z,101203.55
2023-05-20T19:19:43.127Z,101205.93
2023-05-20T19:24:46.514Z,101210.70
2023-05-20T19:29:49.626Z,101208.20
2023-05-20T19:34:52.767Z,101209.52
2023-05-20T19:39:56.424Z,101207.58
2023-05-20T19:44:59.994Z,101207.10
2023-05-20T19:50:04.349Z,101204.96
2023-05-20T19:55:08.632Z,101204.17
2023-05-20T20:00:12.975Z,101206.54
2023-05-20T20:05:16.326Z,101204.73
2023-05-20T20:10:20.025Z,101203.71
2023-05-20T20:15:24.307Z,101202.46
2023-05-20T20:20:27.874Z,101203.06
2023-05-20T20:25:34.301Z,101205.68
2023-05-20T20:30:38.354Z,101209.70
2023-05-20T20:35:42.210Z,101211.58
2023-05-20T20:40:46.256Z,101212.83
2023-05-20T20:45:53.263Z,101214.93
2023-05-20T20:50:56.763Z,101215.41
2023-05-20T20:55:59.949Z,101210.27
2023-05-20T21:01:04.008Z,101203.13
2023-05-20T21:06:08.138Z,101198.63
2023-05-20T21:11:11.584Z,101194.54
2023-05-20T21:16:15.155Z,101193.15
2023-05-20T21:21:20.779Z,101193.67
2023-05-20T21:26:25.845Z,101194.02
2023-05-20T21:31:29.233Z,101196.56
2023-05-20T21:36:32.783Z,101191.21
2023-05-20T21:41:36.221Z,101194.23
2023-05-20T21:46:39.728Z,101199.80
2023-05-20T21:51:43.091Z,101205.31
2023-05-20T21:56:46.280Z,101203.41
2023-05-20T22:01:51.001Z,101200.63
2023-05-20T22:06:56.304Z,101201.78
2023-05-20T22:12:00.044Z,101204.73
2023-05-20T22:17:03.313Z,101205.88
2023-05-20T22:22:06.710Z,101203.23
2023-05-20T22:27:09.916Z,101205.88
2023-05-20T22:32:13.164Z,101198.34
2023-05-20T22:37:16.976Z,101201.76
2023-05-20T22:42:20.115Z,101199.96
2023-05-20T22:47:23.418Z,101201.30
2023-05-20T22:52:29.813Z,101199.89
2023-05-20T22:57:33.182Z,101199.36
2023-05-20T23:02:36.465Z,101198.90
2023-05-20T23:07:39.728Z,101197.16
2023-05-20T23:12:42.970Z,101192.65
2023-05-20T23:17:46.240Z,101189.93
2023-05-20T23:22:49.833Z,101190.43
2023-05-20T23:27:53.085Z,101188.25
2023-05-20T23:32:57.965Z,101187.98
2023-05-20T23:38:01.616Z,101189.64
2023-05-20T23:43:04.860Z,101185.81
2023-05-20T23:48:11.507Z,101185.81
2023-05-20T23:53:14.822Z,101191.36
2023-05-20T23:58:18.160Z,101192.36
